createdAt,value
2016-02-23T00:00:43.235Z,99.99
2016-02-23T00:01:43.206Z,99.99
2016-02-23T00:02:43.178Z,99.99
2016-02-23T00:03:43.164Z,99.99
2016-02-23T00:04:43.120Z,99.99
2016-02-23T00:05:43.100Z,99.99
2016-02-23T00:06:43.072Z,99.99
2016-02-23T00:07:43.027Z,99.99
2016-02-23T00:08:43.000Z,99.99
2016-02-23T00:09:42.970Z,99.99
2016-02-23T00:10:42.941Z,99.99
2016-02-23T00:11:42.914Z,99.99
2016-02-23T00:12:42.885Z,99.99
2016-02-23T00:13:42.856Z,99.99
2016-02-23T00:14:42.827Z,99.99
2016-02-23T00:15:42.799Z,99.99
2016-02-23T00:16:42.786Z,99.99
2016-02-23T00:17:42.741Z,99.99
2016-02-23T00:18:42.713Z,99.99
2016-02-23T00:19:42.685Z,99.99
2016-02-23T00:20:42.657Z,99.99
2016-02-23T00:21:42.623Z,99.99
2016-02-23T00:22:42.584Z,99.99
2016-02-23T00:23:42.544Z,99.99
2016-02-23T00:24:42.504Z,99.99
2016-02-23T00:25:42.464Z,99.99
2016-02-23T00:26:42.427Z,99.99
2016-02-23T00:27:42.394Z,99.99
2016-02-23T00:28:42.362Z,99.99
2016-02-23T00:29:42.329Z,99.99
2016-02-23T00:30:42.297Z,99.99
2016-02-23T00:31:42.265Z,99.99
2016-02-23T00:32:42.235Z,99.99
2016-02-23T00:33:42.205Z,99.99
2016-02-23T00:34:42.176Z,99.99
2016-02-23T00:35:42.146Z,99.99
2016-02-23T00:36:42.116Z,99.99
2016-02-23T00:37:42.086Z,99.99
2016-02-23T00:38:42.057Z,99.99
2016-02-23T00:39:42.013Z,99.99
2016-02-23T00:40:41.983Z,99.99
2016-02-23T00:41:41.954Z,99.99
2016-02-23T00:42:41.932Z,99.99
2016-02-23T00:43:41.904Z,99.99
2016-02-23T00:44:41.875Z,99.99
2016-02-23T00:45:41.848Z,99.99
2016-02-23T00:46:41.818Z,99.99
2016-02-23T00:47:41.789Z,99.99
2016-02-23T00:48:41.762Z,99.99
2016-02-23T00:49:41.733Z,99.99
2016-02-23T00:50:41.703Z,99.99
2016-02-23T00:51:41.675Z,99.99
2016-02-23T00:52:41.647Z,99.99
2016-02-23T00:53:41.619Z,99.99
2016-02-23T00:54:41.590Z,99.99
2016-02-23T00:55:41.561Z,99.99
2016-02-23T00:56:41.517Z,99.99
2016-02-23T00:57:41.489Z,99.99
2016-02-23T00:58:41.475Z,99.99
2016-02-23T00:59:41.432Z,99.99
2016-02-23T01:00:41.403Z,99.99
2016-02-23T01:01:41.374Z,99.99
2016-02-23T01:02:41.346Z,99.99
2016-02-23T01:03:41.318Z,99.99
2016-02-23T01:04:41.288Z,99.99
2016-02-23T01:05:41.260Z,99.99
2016-02-23T01:06:41.232Z,99.99
2016-02-23T01:07:41.203Z,99.99
2016-02-23T01:08:41.174Z,99.99
2016-02-23T01:09:41.146Z,99.99
2016-02-23T01:10:41.117Z,99.99
2016-02-23T01:11:41.090Z,99.99
2016-02-23T01:12:41.060Z,99.99
2016-02-23T01:13:41.031Z,99.99
2016-02-23T01:14:41.003Z,99.99
2016-02-23T01:15:40.990Z,99.99
2016-02-23T01:16:40.946Z,99.99
2016-02-23T01:17:40.917Z,99.99
2016-02-23T01:18:40.889Z,99.99
2016-02-23T01:19:40.861Z,99.99
2016-02-23T01:20:40.832Z,99.99
2016-02-23T01:21:40.803Z,99.99
2016-02-23T01:22:40.775Z,99.99
2016-02-23T01:23:40.746Z,99.99
2016-02-23T01:24:40.718Z,99.99
2016-02-23T01:25:40.689Z,99.99
2016-02-23T01:26:40.660Z,99.99
2016-02-23T01:27:40.632Z,99.99
2016-02-23T01:28:40.603Z,99.99
2016-02-23T01:29:40.575Z,99.99
2016-02-23T01:30:40.546Z,99.99
2016-02-23T01:31:40.518Z,99.99
2016-02-23T01:32:40.489Z,99.99
2016-02-23T01:33:40.461Z,99.99
2016-02-23T01:34:40.432Z,99.99
2016-02-23T01:35:40.403Z,99.99
2016-02-23T01:36:40.375Z,99.99
2016-02-23T01:37:40.346Z,99.99
2016-02-23T01:38:40.318Z,99.99
2016-02-23T01:39:40.290Z,99.99
2016-02-23T01:40:40.260Z,99.99
2016-02-23T01:41:40.232Z,99.99
2016-02-23T01:42:40.204Z,99.99
2016-02-23T01:43:40.175Z,99.99
2016-02-23T01:44:40.146Z,99.99
2016-02-23T01:45:40.118Z,99.99
2016-02-23T01:46:40.089Z,99.99
2016-02-23T01:47:40.061Z,99.99
2016-02-23T01:48:40.032Z,99.99
2016-02-23T01:49:40.003Z,99.99
2016-02-23T01:50:39.975Z,99.99
2016-02-23T01:51:39.947Z,99.99
2016-02-23T01:52:39.917Z,99.99
2016-02-23T01:53:39.889Z,99.99
2016-02-23T01:54:39.861Z,99.99
2016-02-23T01:55:39.832Z,99.99
2016-02-23T01:56:39.804Z,99.99
2016-02-23T01:57:39.775Z,99.99
2016-02-23T01:58:39.746Z,99.99
2016-02-23T01:59:39.703Z,99.99
2016-02-23T02:00:39.674Z,99.99
2016-02-23T02:01:39.644Z,99.99
2016-02-23T02:02:39.616Z,99.99
2016-02-23T02:03:39.604Z,99.99
2016-02-23T02:04:39.560Z,99.99
2016-02-23T02:05:39.531Z,99.99
2016-02-23T02:06:39.502Z,99.99
2016-02-23T02:07:39.490Z,99.99
2016-02-23T02:08:39.446Z,99.99
2016-02-23T02:09:39.416Z,99.99
2016-02-23T02:10:39.387Z,99.99
2016-02-23T02:11:39.360Z,99.99
2016-02-23T02:12:39.331Z,99.99
2016-02-23T02:13:39.302Z,99.99
2016-02-23T02:14:39.290Z,99.99
2016-02-23T02:15:39.245Z,99.99
2016-02-23T02:16:39.217Z,99.99
2016-02-23T02:17:39.188Z,99.99
2016-02-23T02:18:39.159Z,99.99
2016-02-23T02:19:39.131Z,99.99
2016-02-23T02:20:39.103Z,99.99
2016-02-23T02:21:39.074Z,99.99
2016-02-23T02:22:39.045Z,99.99
2016-02-23T02:23:39.017Z,99.99
2016-02-23T02:24:38.989Z,99.99
2016-02-23T02:25:38.959Z,99.99
2016-02-23T02:26:38.931Z,99.99
2016-02-23T02:27:38.903Z,99.99
2016-02-23T02:28:38.874Z,99.99
2016-02-23T02:29:38.845Z,99.99
2016-02-23T02:30:38.822Z,99.99
2016-02-23T02:31:38.793Z,99.99
2016-02-23T02:32:38.765Z,99.99
2016-02-23T02:33:38.736Z,99.99
2016-02-23T02:34:38.707Z,99.99
2016-02-23T02:35:38.679Z,99.99
2016-02-23T02:36:38.651Z,99.99
2016-02-23T02:37:38.621Z,99.99
2016-02-23T02:38:38.594Z,99.99
2016-02-23T02:39:38.565Z,99.99
2016-02-23T02:40:38.551Z,99.99
2016-02-23T02:41:38.508Z,99.99
2016-02-23T02:42:38.479Z,99.99
2016-02-23T02:43:38.450Z,99.99
2016-02-23T02:44:38.422Z,99.99
2016-02-23T02:45:38.393Z,99.99
2016-02-23T02:46:38.364Z,99.99
2016-02-23T02:47:38.337Z,99.99
2016-02-23T02:48:38.308Z,99.99
2016-02-23T02:49:38.278Z,99.99
2016-02-23T02:50:38.251Z,99.99
2016-02-23T02:51:38.222Z,99.99
2016-02-23T02:52:38.193Z,99.99
2016-02-23T02:53:38.165Z,99.99
2016-02-23T02:54:38.136Z,99.99
2016-02-23T02:55:38.108Z,99.99
2016-02-23T02:56:38.080Z,99.99
2016-02-23T02:57:38.050Z,99.99
2016-02-23T02:58:38.022Z,99.99
2016-02-23T02:59:37.994Z,99.99
2016-02-23T03:00:37.965Z,99.99
2016-02-23T03:01:37.936Z,99.99
2016-02-23T03:02:37.908Z,99.99
2016-02-23T03:03:37.880Z,99.99
2016-02-23T03:04:37.851Z,99.99
2016-02-23T03:05:37.807Z,99.99
2016-02-23T03:06:37.778Z,99.99
2016-02-23T03:07:37.749Z,99.99
2016-02-23T03:08:37.737Z,99.99
2016-02-23T03:09:37.707Z,99.99
2016-02-23T03:10:37.679Z,99.99
2016-02-23T03:11:37.634Z,99.99
2016-02-23T03:12:37.607Z,99.99
2016-02-23T03:13:37.578Z,99.99
2016-02-23T03:14:37.549Z,99.99
2016-02-23T03:15:37.521Z,99.99
2016-02-23T03:16:37.492Z,99.99
2016-02-23T03:17:37.464Z,99.99
2016-02-23T03:18:37.435Z,99.99
2016-02-23T03:19:37.406Z,99.99
2016-02-23T03:20:37.378Z,99.99
2016-02-23T03:21:37.350Z,99.99
2016-02-23T03:22:37.320Z,99.99
2016-02-23T03:23:37.293Z,99.99
2016-02-23T03:24:37.264Z,99.99
2016-02-23T03:25:37.250Z,99.99
2016-02-23T03:26:37.223Z,99.99
2016-02-23T03:27:37.194Z,99.99
2016-02-23T03:28:37.166Z,99.99
2016-02-23T03:29:37.121Z,99.99
2016-02-23T03:30:37.108Z,99.99
2016-02-23T03:31:37.079Z,99.99
2016-02-23T03:32:37.036Z,99.99
2016-02-23T03:33:37.007Z,99.99
2016-02-23T03:34:36.993Z,99.99
2016-02-23T03:35:36.950Z,99.99
2016-02-23T03:36:36.937Z,99.99
2016-02-23T03:37:36.908Z,99.99
2016-02-23T03:38:36.879Z,99.99
2016-02-23T03:39:36.835Z,99.99
2016-02-23T03:40:36.823Z,99.99
2016-02-23T03:41:36.794Z,99.99
2016-02-23T03:42:36.765Z,99.99
2016-02-23T03:43:36.721Z,99.99
2016-02-23T03:44:36.692Z,99.99
2016-02-23T03:45:36.680Z,99.99
2016-02-23T03:46:36.698Z,99.99
2016-02-23T03:47:36.622Z,99.99
2016-02-23T03:48:36.595Z,99.99
2016-02-23T03:49:36.550Z,99.99
2016-02-23T03:50:36.521Z,99.99
2016-02-23T03:51:36.493Z,99.99
2016-02-23T03:52:36.480Z,99.99
2016-02-23T03:53:36.451Z,99.99
2016-02-23T03:54:36.407Z,99.99
2016-02-23T03:55:36.378Z,99.99
2016-02-23T03:56:36.365Z,99.99
2016-02-23T03:57:36.337Z,99.99
2016-02-23T03:58:36.292Z,99.99
2016-02-23T03:59:36.280Z,99.99
2016-02-23T04:00:36.236Z,99.99
2016-02-23T04:01:36.207Z,99.99
2016-02-23T04:02:36.178Z,99.99
2016-02-23T04:03:36.150Z,99.99
2016-02-23T04:04:36.121Z,99.99
2016-02-23T04:05:36.108Z,99.99
2016-02-23T04:06:36.064Z,99.99
2016-02-23T04:07:36.035Z,99.99
2016-02-23T04:08:36.007Z,99.99
2016-02-23T04:09:35.979Z,99.99
2016-02-23T04:10:35.950Z,99.99
2016-02-23T04:11:35.921Z,99.99
2016-02-23T04:12:35.893Z,99.99
2016-02-23T04:13:35.865Z,99.99
2016-02-23T04:14:35.835Z,99.99
2016-02-23T04:15:35.807Z,99.99
2016-02-23T04:16:35.779Z,99.99
2016-02-23T04:17:35.750Z,99.99
2016-02-23T04:18:35.721Z,99.99
2016-02-23T04:19:35.693Z,99.99
2016-02-23T04:20:35.664Z,99.99
2016-02-23T04:21:35.636Z,99.99
2016-02-23T04:22:35.607Z,99.99
2016-02-23T04:23:35.578Z,99.99
2016-02-23T04:24:35.550Z,99.99
2016-02-23T04:25:35.522Z,99.99
2016-02-23T04:26:35.508Z,99.99
2016-02-23T04:27:35.465Z,99.99
2016-02-23T04:28:35.436Z,99.99
2016-02-23T04:29:35.407Z,99.99
2016-02-23T04:30:35.379Z,99.99
2016-02-23T04:31:35.350Z,99.99
2016-02-23T04:32:35.322Z,99.99
2016-02-23T04:33:35.291Z,99.99
2016-02-23T04:34:35.262Z,99.99
2016-02-23T04:35:35.249Z,99.99
2016-02-23T04:36:35.205Z,99.99
2016-02-23T04:37:35.192Z,99.99
2016-02-23T04:38:35.147Z,99.99
2016-02-23T04:39:35.118Z,99.99
2016-02-23T04:40:35.090Z,99.99
2016-02-23T04:41:35.062Z,99.99
2016-02-23T04:42:35.033Z,99.99
2016-02-23T04:43:35.004Z,99.99
2016-02-23T04:44:34.992Z,99.99
2016-02-23T04:45:34.948Z,99.99
2016-02-23T04:46:34.919Z,99.99
2016-02-23T04:47:34.891Z,99.99
2016-02-23T04:48:34.862Z,99.99
2016-02-23T04:49:34.833Z,99.99
2016-02-23T04:50:34.805Z,99.99
2016-02-23T04:51:34.776Z,99.99
2016-02-23T04:52:34.747Z,99.99
2016-02-23T04:53:34.720Z,99.99
2016-02-23T04:54:34.690Z,99.99
2016-02-23T04:55:34.662Z,99.99
2016-02-23T04:56:34.634Z,99.99
2016-02-23T04:57:34.605Z,99.99
2016-02-23T04:58:34.592Z,99.99
2016-02-23T04:59:34.548Z,99.99
2016-02-23T05:00:34.519Z,99.99
2016-02-23T05:01:34.491Z,99.99
2016-02-23T05:02:34.461Z,99.99
2016-02-23T05:03:34.434Z,99.99
2016-02-23T05:04:34.405Z,99.99
2016-02-23T05:05:34.392Z,99.99
2016-02-23T05:06:34.347Z,99.99
2016-02-23T05:07:34.319Z,99.99
2016-02-23T05:08:34.291Z,99.99
2016-02-23T05:09:34.263Z,99.99
2016-02-23T05:10:34.233Z,99.99
2016-02-23T05:11:34.204Z,99.99
2016-02-23T05:12:34.177Z,99.99
2016-02-23T05:13:34.148Z,99.99
2016-02-23T05:14:34.119Z,99.99
2016-02-23T05:15:34.107Z,99.99
2016-02-23T05:16:34.062Z,99.99
2016-02-23T05:17:34.034Z,99.99
2016-02-23T05:18:34.005Z,99.99
2016-02-23T05:19:33.976Z,99.99
2016-02-23T05:20:33.948Z,99.99
2016-02-23T05:21:33.920Z,99.99
2016-02-23T05:22:33.890Z,99.99
2016-02-23T05:23:33.862Z,99.99
2016-02-23T05:24:33.834Z,99.99
2016-02-23T05:25:33.821Z,99.99
2016-02-23T05:26:33.776Z,99.99
2016-02-23T05:27:33.748Z,99.99
2016-02-23T05:28:33.719Z,99.99
2016-02-23T05:29:33.691Z,99.99
2016-02-23T05:30:33.662Z,99.99
2016-02-23T05:31:33.650Z,99.99
2016-02-23T05:32:33.605Z,99.99
2016-02-23T05:33:33.577Z,99.99
2016-02-23T05:34:33.564Z,99.99
2016-02-23T05:35:33.519Z,99.99
2016-02-23T05:36:33.491Z,99.99
2016-02-23T05:37:33.463Z,99.99
2016-02-23T05:38:33.434Z,99.99
2016-02-23T05:39:33.421Z,99.99
2016-02-23T05:40:33.377Z,99.99
2016-02-23T05:41:33.348Z,99.99
2016-02-23T05:42:33.320Z,99.99
2016-02-23T05:43:33.307Z,99.99
2016-02-23T05:44:33.279Z,99.99
2016-02-23T05:45:33.249Z,99.99
2016-02-23T05:46:33.221Z,99.99
2016-02-23T05:47:33.193Z,99.99
2016-02-23T05:48:33.164Z,99.99
2016-02-23T05:49:33.135Z,99.99
2016-02-23T05:50:33.107Z,99.99
2016-02-23T05:51:33.078Z,99.99
2016-02-23T05:52:33.051Z,99.99
2016-02-23T05:53:33.021Z,99.99
2016-02-23T05:54:32.992Z,99.99
2016-02-23T05:55:32.964Z,99.99
2016-02-23T05:56:32.936Z,99.99
2016-02-23T05:57:32.906Z,99.99
2016-02-23T05:58:32.878Z,99.99
2016-02-23T05:59:32.850Z,99.99
2016-02-23T06:00:32.821Z,99.99
2016-02-23T06:01:32.793Z,99.99
2016-02-23T06:02:32.764Z,99.99
2016-02-23T06:03:32.735Z,99.99
2016-02-23T06:04:32.707Z,99.99
2016-02-23T06:05:32.678Z,99.99
2016-02-23T06:06:32.650Z,99.99
2016-02-23T06:07:32.621Z,99.99
2016-02-23T06:08:32.593Z,99.99
2016-02-23T06:09:32.564Z,99.99
2016-02-23T06:10:32.536Z,99.99
2016-02-23T06:11:32.507Z,99.99
2016-02-23T06:12:32.479Z,99.99
2016-02-23T06:13:32.450Z,99.99
2016-02-23T06:14:32.421Z,99.99
2016-02-23T06:15:32.393Z,99.99
2016-02-23T06:16:32.365Z,99.99
2016-02-23T06:17:32.335Z,99.99
2016-02-23T06:18:32.308Z,99.99
2016-02-23T06:19:32.294Z,99.99
2016-02-23T06:20:32.251Z,99.99
2016-02-23T06:21:32.237Z,99.99
2016-02-23T06:22:32.193Z,99.99
2016-02-23T06:23:32.179Z,99.99
2016-02-23T06:24:32.136Z,99.99
2016-02-23T06:25:32.123Z,99.99
2016-02-23T06:26:32.094Z,99.99
2016-02-23T06:27:32.066Z,99.99
2016-02-23T06:28:32.037Z,99.99
2016-02-23T06:29:32.009Z,99.99
2016-02-23T06:30:31.980Z,99.99
2016-02-23T06:31:31.951Z,99.99
2016-02-23T06:32:31.923Z,99.99
2016-02-23T06:33:31.894Z,99.99
2016-02-23T06:34:31.866Z,99.99
2016-02-23T06:35:31.837Z,99.99
2016-02-23T06:36:31.809Z,99.99
2016-02-23T06:37:31.781Z,99.99
2016-02-23T06:38:31.752Z,99.99
2016-02-23T06:39:31.722Z,99.99
2016-02-23T06:40:31.694Z,99.99
2016-02-23T06:41:31.666Z,99.99
2016-02-23T06:42:31.638Z,99.99
2016-02-23T06:43:31.624Z,99.99
2016-02-23T06:44:31.580Z,99.99
2016-02-23T06:45:31.552Z,99.99
2016-02-23T06:46:31.523Z,99.99
2016-02-23T06:47:31.494Z,99.99
2016-02-23T06:48:31.482Z,99.99
2016-02-23T06:49:31.437Z,99.99
2016-02-23T06:50:31.409Z,99.99
2016-02-23T06:51:31.396Z,99.99
2016-02-23T06:52:31.367Z,99.99
2016-02-23T06:53:31.339Z,99.99
2016-02-23T06:54:31.310Z,99.99
2016-02-23T06:55:31.281Z,99.99
2016-02-23T06:56:31.254Z,99.99
2016-02-23T06:57:31.225Z,99.99
2016-02-23T06:58:31.195Z,99.99
2016-02-23T06:59:31.168Z,99.99
2016-02-23T07:00:31.139Z,99.99
2016-02-23T07:01:31.110Z,99.99
2016-02-23T07:02:31.081Z,99.99
2016-02-23T07:03:31.053Z,99.99
2016-02-23T07:04:31.025Z,99.99
2016-02-23T07:05:30.997Z,99.99
2016-02-23T07:06:30.967Z,99.99
2016-02-23T07:07:30.939Z,99.99
2016-02-23T07:08:30.910Z,99.99
2016-02-23T07:09:30.883Z,99.99
2016-02-23T07:10:30.853Z,99.99
2016-02-23T07:11:30.824Z,99.99
2016-02-23T07:12:30.796Z,99.99
2016-02-23T07:13:30.768Z,99.99
2016-02-23T07:14:30.739Z,99.99
2016-02-23T07:15:30.710Z,99.99
2016-02-23T07:16:30.697Z,99.99
2016-02-23T07:17:30.669Z,99.99
2016-02-23T07:18:30.640Z,99.99
2016-02-23T07:19:30.612Z,99.99
2016-02-23T07:20:30.583Z,99.99
2016-02-23T07:21:30.554Z,99.99
2016-02-23T07:22:30.527Z,99.99
2016-02-23T07:23:30.498Z,99.99
2016-02-23T07:24:30.468Z,99.99
2016-02-23T07:25:30.440Z,99.99
2016-02-23T07:26:30.412Z,99.99
2016-02-23T07:27:30.383Z,99.99
2016-02-23T07:28:30.354Z,99.99
2016-02-23T07:29:30.326Z,99.99
2016-02-23T07:30:30.298Z,99.99
2016-02-23T07:31:30.285Z,99.99
2016-02-23T07:32:30.241Z,99.99
2016-02-23T07:33:30.228Z,99.99
2016-02-23T07:34:30.199Z,99.99
2016-02-23T07:35:30.171Z,99.99
2016-02-23T07:36:30.142Z,99.99
2016-02-23T07:37:30.114Z,99.99
2016-02-23T07:38:30.085Z,99.99
2016-02-23T07:39:30.056Z,99.99
2016-02-23T07:40:30.028Z,99.99
2016-02-23T07:41:30.000Z,99.99
2016-02-23T07:42:29.971Z,99.99
2016-02-23T07:43:29.942Z,99.99
2016-02-23T07:44:29.914Z,99.99
2016-02-23T07:45:29.885Z,99.99
2016-02-23T07:46:29.856Z,99.99
2016-02-23T07:47:29.843Z,99.99
2016-02-23T07:48:29.800Z,99.99
2016-02-23T07:49:29.849Z,99.99
2016-02-23T07:50:29.758Z,99.99
2016-02-23T07:51:29.729Z,99.99
2016-02-23T07:52:29.701Z,99.99
2016-02-23T07:53:29.672Z,99.99
2016-02-23T07:54:29.643Z,99.99
2016-02-23T07:55:29.615Z,99.99
2016-02-23T07:56:29.618Z,99.99
2016-02-23T07:57:29.558Z,99.99
2016-02-23T07:58:29.529Z,99.99
2016-02-23T07:59:29.501Z,99.99
2016-02-23T08:00:29.473Z,99.99
2016-02-23T08:01:29.459Z,99.99
2016-02-23T08:02:29.415Z,99.99
2016-02-23T08:03:29.403Z,99.99
2016-02-23T08:04:29.373Z,99.99
2016-02-23T08:05:29.344Z,99.99
2016-02-23T08:06:29.316Z,99.99
2016-02-23T08:07:29.288Z,99.99
2016-02-23T08:08:29.259Z,99.99
2016-02-23T08:09:29.231Z,99.99
2016-02-23T08:10:29.217Z,99.99
2016-02-23T08:11:29.174Z,99.99
2016-02-23T08:12:29.161Z,99.99
2016-02-23T08:13:29.132Z,99.99
2016-02-23T08:14:29.103Z,99.99
2016-02-23T08:15:29.074Z,99.99
2016-02-23T08:16:29.046Z,99.99
2016-02-23T08:17:29.018Z,99.99
2016-02-23T08:18:28.989Z,99.99
2016-02-23T08:19:28.992Z,99.99
2016-02-23T08:20:28.948Z,99.99
2016-02-23T08:21:28.904Z,99.99
2016-02-23T08:22:28.891Z,99.99
2016-02-23T08:23:28.862Z,99.99
2016-02-23T08:24:28.834Z,99.99
2016-02-23T08:25:28.805Z,99.99
2016-02-23T08:26:28.776Z,99.99
2016-02-23T08:27:28.748Z,99.99
2016-02-23T08:28:28.719Z,99.99
2016-02-23T08:29:28.691Z,99.99
2016-02-23T08:30:28.662Z,99.99
2016-02-23T08:31:28.634Z,99.99
2016-02-23T08:32:28.620Z,99.99
2016-02-23T08:33:28.593Z,99.99
2016-02-23T08:34:28.564Z,99.99
2016-02-23T08:35:28.534Z,99.99
2016-02-23T08:36:28.507Z,99.99
2016-02-23T08:37:28.478Z,99.99
2016-02-23T08:38:28.450Z,99.99
2016-02-23T08:39:28.436Z,99.99
2016-02-23T08:40:28.392Z,99.99
2016-02-23T08:41:28.380Z,99.99
2016-02-23T08:42:28.351Z,99.99
2016-02-23T08:43:28.322Z,99.99
2016-02-23T08:44:28.294Z,99.99
2016-02-23T08:45:28.266Z,99.99
2016-02-23T08:46:28.236Z,99.99
2016-02-23T08:47:28.208Z,99.99
2016-02-23T08:48:28.180Z,99.99
2016-02-23T08:49:28.151Z,99.99
2016-02-23T08:50:28.122Z,99.99
2016-02-23T08:51:28.093Z,99.99
2016-02-23T08:52:28.080Z,99.99
2016-02-23T08:53:28.052Z,99.99
2016-02-23T08:54:28.024Z,99.99
2016-02-23T08:55:27.995Z,99.99
2016-02-23T08:56:27.966Z,99.99
2016-02-23T08:57:27.938Z,99.99
2016-02-23T08:58:27.909Z,99.99
2016-02-23T08:59:27.881Z,99.99
2016-02-23T09:00:27.852Z,99.99
2016-02-23T09:01:27.828Z,99.99
2016-02-23T09:02:27.800Z,99.99
2016-02-23T09:03:27.803Z,99.99
2016-02-23T09:04:27.759Z,99.99
2016-02-23T09:05:27.735Z,99.99
2016-02-23T09:06:27.691Z,99.99
2016-02-23T09:07:27.662Z,99.99
2016-02-23T09:08:27.634Z,99.99
2016-02-23T09:09:27.621Z,99.99
2016-02-23T09:10:27.592Z,99.99
2016-02-23T09:11:27.564Z,99.99
2016-02-23T09:12:27.536Z,99.99
2016-02-23T09:13:27.507Z,99.99
2016-02-23T09:14:27.478Z,99.99
2016-02-23T09:15:27.794Z,99.99
2016-02-23T09:16:27.436Z,99.99
2016-02-23T09:17:27.393Z,99.99
2016-02-23T09:18:27.380Z,99.99
2016-02-23T09:19:27.351Z,99.99
2016-02-23T09:20:27.322Z,99.99
2016-02-23T09:21:27.294Z,99.99
2016-02-23T09:22:27.265Z,99.99
2016-02-23T09:23:27.237Z,99.99
2016-02-23T09:24:27.208Z,99.99
2016-02-23T09:25:27.180Z,99.99
2016-02-23T09:26:27.151Z,99.99
2016-02-23T09:27:27.138Z,99.99
2016-02-23T09:28:27.104Z,99.99
2016-02-23T09:29:27.063Z,99.99
2016-02-23T09:30:27.037Z,99.99
2016-02-23T09:31:26.980Z,99.99
2016-02-23T09:32:26.939Z,99.99
2016-02-23T09:33:26.917Z,99.99
2016-02-23T09:34:26.884Z,99.99
2016-02-23T09:35:26.851Z,99.99
2016-02-23T09:36:26.817Z,99.99
2016-02-23T09:37:26.784Z,99.99
2016-02-23T09:38:26.752Z,99.99
2016-02-23T09:39:26.784Z,99.99
2016-02-23T09:40:26.707Z,99.99
2016-02-23T09:41:26.676Z,99.91
2016-02-23T09:42:26.647Z,99.99
2016-02-23T09:43:26.617Z,99.99
2016-02-23T09:44:26.603Z,99.91
2016-02-23T09:45:26.575Z,99.99
2016-02-23T09:46:26.545Z,99.99
2016-02-23T09:47:26.626Z,99.99
2016-02-23T09:48:26.487Z,99.99
2016-02-23T09:49:26.474Z,99.99
2016-02-23T09:50:26.445Z,99.99
2016-02-23T09:51:26.416Z,99.99
2016-02-23T09:52:26.388Z,99.99
2016-02-23T09:53:26.374Z,99.99
2016-02-23T09:54:26.377Z,99.77
2016-02-23T09:55:26.317Z,99.99
2016-02-23T09:56:26.288Z,99.77
2016-02-23T09:57:26.260Z,99.87
2016-02-23T09:58:26.232Z,99.99
2016-02-23T09:59:26.202Z,99.99
2016-02-23T10:00:26.190Z,99.99
2016-02-23T10:01:26.162Z,99.99
2016-02-23T10:02:26.133Z,99.99
2016-02-23T10:03:26.104Z,99.99
2016-02-23T10:04:26.076Z,99.99
2016-02-23T10:05:26.063Z,99.99
2016-02-23T10:06:26.034Z,99.99
2016-02-23T10:07:26.006Z,99.99
2016-02-23T10:08:25.977Z,99.99
2016-02-23T10:09:25.948Z,99.99
2016-02-23T10:10:25.920Z,99.99
2016-02-23T10:11:25.907Z,99.99
2016-02-23T10:12:25.878Z,99.99
2016-02-23T10:13:25.850Z,99.99
2016-02-23T10:14:25.837Z,99.99
2016-02-23T10:15:25.981Z,99.99
2016-02-23T10:16:25.780Z,99.99
2016-02-23T10:17:25.751Z,99.99
2016-02-23T10:18:25.723Z,99.99
2016-02-23T10:19:25.694Z,99.99
2016-02-23T10:20:25.681Z,99.99
2016-02-23T10:21:25.652Z,99.99
2016-02-23T10:22:25.625Z,99.99
2016-02-23T10:23:25.596Z,99.99
2016-02-23T10:24:25.942Z,99.99
2016-02-23T10:25:25.538Z,99.99
2016-02-23T10:26:25.635Z,99.99
2016-02-23T10:27:25.497Z,99.99
2016-02-23T10:28:25.484Z,99.99
2016-02-23T10:29:25.471Z,99.99
2016-02-23T10:30:25.427Z,99.99
2016-02-23T10:31:25.413Z,99.99
2016-02-23T10:32:25.370Z,99.97
2016-02-23T10:33:25.357Z,99.99
2016-02-23T10:34:25.313Z,99.99
2016-02-23T10:35:25.299Z,99.87
2016-02-23T10:36:25.271Z,99.99
2016-02-23T10:37:25.243Z,99.68
2016-02-23T10:38:25.215Z,99.99
2016-02-23T10:39:25.201Z,99.58
2016-02-23T10:40:25.173Z,99.87
2016-02-23T10:41:25.145Z,99.99
2016-02-23T10:42:25.131Z,99.97
2016-02-23T10:43:25.103Z,99.97
2016-02-23T10:44:25.073Z,99.68
2016-02-23T10:45:25.076Z,99.99
2016-02-23T10:46:25.017Z,99.99
2016-02-23T10:47:25.004Z,99.99
2016-02-23T10:48:24.975Z,99.4
2016-02-23T10:49:24.947Z,99.97
2016-02-23T10:50:24.919Z,99.68
2016-02-23T10:51:24.889Z,99.49
2016-02-23T10:52:24.877Z,99.68
2016-02-23T10:53:24.848Z,99.4
2016-02-23T10:54:24.819Z,99.68
2016-02-23T10:55:24.791Z,99.58
2016-02-23T10:56:24.778Z,99.4
2016-02-23T10:57:24.750Z,99.4
2016-02-23T10:58:24.737Z,99.68
2016-02-23T10:59:24.708Z,99.68
2016-02-23T11:00:24.679Z,99.87
2016-02-23T11:01:24.699Z,99.99
2016-02-23T11:02:24.622Z,99.99
2016-02-23T11:03:24.593Z,99.97
2016-02-23T11:04:24.565Z,99.77
2016-02-23T11:05:24.552Z,99.99
2016-02-23T11:06:24.524Z,99.97
2016-02-23T11:07:24.496Z,99.99
2016-02-23T11:08:24.482Z,99.99
2016-02-23T11:09:24.454Z,99.99
2016-02-23T11:10:24.426Z,99.99
2016-02-23T11:11:24.397Z,99.99
2016-02-23T11:12:24.368Z,99.99
2016-02-23T11:13:24.356Z,99.99
2016-02-23T11:14:24.326Z,99.99
2016-02-23T11:15:24.298Z,99.99
2016-02-23T11:16:24.284Z,99.99
2016-02-23T11:17:24.256Z,99.99
2016-02-23T11:18:24.275Z,99.99
2016-02-23T11:19:24.215Z,99.99
2016-02-23T11:20:24.186Z,99.99
2016-02-23T11:21:24.158Z,99.99
2016-02-23T11:22:24.130Z,99.99
2016-02-23T11:23:24.100Z,99.99
2016-02-23T11:24:24.088Z,99.99
2016-02-23T11:25:24.059Z,99.99
2016-02-23T11:26:24.047Z,99.97
2016-02-23T11:27:24.018Z,99.69
2016-02-23T11:28:23.989Z,99.5
2016-02-23T11:29:23.961Z,99.59
2016-02-23T11:30:23.947Z,99.99
2016-02-23T11:31:23.920Z,99.99
2016-02-23T11:32:23.907Z,99.73
2016-02-23T11:33:23.878Z,99.35
2016-02-23T11:34:23.849Z,99.54
2016-02-23T11:35:23.821Z,99.97
2016-02-23T11:36:23.807Z,99.26
2016-02-23T11:37:23.796Z,99.54
2016-02-23T11:38:23.751Z,99.69
2016-02-23T11:39:23.722Z,99.59
2016-02-23T11:40:23.709Z,99.78
2016-02-23T11:41:23.681Z,99.59
2016-02-23T11:42:23.651Z,99.02
2016-02-23T11:43:23.639Z,99.78
2016-02-23T11:44:23.627Z,99.78
2016-02-23T11:45:23.582Z,99.5
2016-02-23T11:46:23.570Z,99.88
2016-02-23T11:47:23.540Z,99.4
2016-02-23T11:48:23.512Z,99.3
2016-02-23T11:49:23.498Z,99.21
2016-02-23T11:50:23.470Z,99.11
2016-02-23T11:51:23.441Z,99.78
2016-02-23T11:52:23.429Z,99.78
2016-02-23T11:53:23.400Z,99.5
2016-02-23T11:54:23.374Z,99.3
2016-02-23T11:55:23.361Z,99.4
2016-02-23T11:56:25.128Z,99.11
2016-02-23T11:57:23.313Z,99.59
2016-02-23T11:58:23.285Z,99.59
2016-02-23T11:59:23.256Z,99.69
2016-02-23T12:00:23.243Z,99.11
2016-02-23T12:01:23.215Z,99.16
2016-02-23T12:02:23.437Z,99.3
2016-02-23T12:03:23.173Z,99.21
2016-02-23T12:04:23.145Z,99.4
2016-02-23T12:05:23.132Z,99.02
2016-02-23T12:06:23.188Z,99.45
2016-02-23T12:07:23.077Z,99.16
2016-02-23T12:08:23.048Z,99.36
2016-02-23T12:09:23.035Z,98.97
2016-02-23T12:10:23.007Z,98.79
2016-02-23T12:11:22.993Z,98.88
2016-02-23T12:12:22.965Z,98.5
2016-02-23T12:13:22.936Z,98.69
2016-02-23T12:14:22.923Z,98.36
2016-02-23T12:15:22.895Z,98.64
2016-02-23T12:16:22.866Z,98.83
2016-02-23T12:17:22.853Z,98.36
2016-02-23T12:18:22.825Z,98.64
2016-02-23T12:19:22.797Z,98.07
2016-02-23T12:20:22.784Z,98.17
2016-02-23T12:21:22.755Z,98.36
2016-02-23T12:22:22.726Z,98.83
2016-02-23T12:23:22.713Z,99.21
2016-02-23T12:24:22.684Z,98.93
2016-02-23T12:25:22.657Z,98.93
2016-02-23T12:26:22.644Z,98.83
2016-02-23T12:27:22.615Z,99.11
2016-02-23T12:28:22.587Z,98.83
2016-02-23T12:29:22.558Z,99.3
2016-02-23T12:30:22.545Z,99.78
2016-02-23T12:31:22.517Z,99.59
2016-02-23T12:32:22.488Z,99.88
2016-02-23T12:33:22.459Z,99.99
2016-02-23T12:34:22.447Z,99.99
2016-02-23T12:35:22.417Z,99.99
2016-02-23T12:36:22.389Z,99.99
2016-02-23T12:37:22.375Z,99.99
2016-02-23T12:38:22.348Z,99.99
2016-02-23T12:39:22.336Z,99.99
2016-02-23T12:40:22.291Z,99.99
2016-02-23T12:41:22.278Z,99.99
2016-02-23T12:42:22.249Z,99.99
2016-02-23T12:43:22.221Z,99.99
2016-02-23T12:44:22.208Z,99.99
2016-02-23T12:45:22.179Z,99.99
2016-02-23T12:46:22.165Z,99.99
2016-02-23T12:47:22.138Z,99.99
2016-02-23T12:48:22.110Z,99.99
2016-02-23T12:49:22.096Z,99.99
2016-02-23T12:50:22.068Z,99.99
2016-02-23T12:51:22.038Z,99.99
2016-02-23T12:52:22.027Z,99.99
2016-02-23T12:53:21.998Z,99.99